sensor_id;sensor_type;location;lat;lon;timestamp;temperature;humidity
44517;DHT22;30223;17.182;-96.766;2022-08-26T00:01:49;27.80;63.30
44517;DHT22;30223;17.182;-96.766;2022-08-26T00:04:16;27.80;63.40
44517;DHT22;30223;17.182;-96.766;2022-08-26T00:06:42;27.80;63.40
44517;DHT22;30223;17.182;-96.766;2022-08-26T00:09:09;27.80;63.40
44517;DHT22;30223;17.182;-96.766;2022-08-26T00:11:36;27.80;63.50
44517;DHT22;30223;17.182;-96.766;2022-08-26T00:14:02;27.80;63.50
44517;DHT22;30223;17.182;-96.766;2022-08-26T00:16:30;27.70;63.40
44517;DHT22;30223;17.182;-96.766;2022-08-26T00:18:56;27.70;63.40
44517;DHT22;30223;17.182;-96.766;2022-08-26T00:21:23;27.70;63.50
44517;DHT22;30223;17.182;-96.766;2022-08-26T00:23:50;27.70;64.20
44517;DHT22;30223;17.182;-96.766;2022-08-26T00:26:16;27.70;63.60
44517;DHT22;30223;17.182;-96.766;2022-08-26T00:28:43;27.70;63.70
44517;DHT22;30223;17.182;-96.766;2022-08-26T00:31:09;27.60;63.60
44517;DHT22;30223;17.182;-96.766;2022-08-26T00:33:37;27.60;63.70
44517;DHT22;30223;17.182;-96.766;2022-08-26T00:36:03;27.60;63.70
44517;DHT22;30223;17.182;-96.766;2022-08-26T00:38:30;27.60;63.70
44517;DHT22;30223;17.182;-96.766;2022-08-26T00:40:57;27.60;63.80
44517;DHT22;30223;17.182;-96.766;2022-08-26T00:43:25;27.60;63.80
44517;DHT22;30223;17.182;-96.766;2022-08-26T00:45:58;27.50;63.70
44517;DHT22;30223;17.182;-96.766;2022-08-26T00:48:29;27.60;63.80
44517;DHT22;30223;17.182;-96.766;2022-08-26T00:51:08;27.50;63.80
44517;DHT22;30223;17.182;-96.766;2022-08-26T00:53:41;27.50;63.80
44517;DHT22;30223;17.182;-96.766;2022-08-26T00:56:33;27.50;63.90
44517;DHT22;30223;17.182;-96.766;2022-08-26T00:59:05;27.50;63.90
44517;DHT22;30223;17.182;-96.766;2022-08-26T01:01:33;27.40;63.80
44517;DHT22;30223;17.182;-96.766;2022-08-26T01:04:01;27.40;63.80
44517;DHT22;30223;17.182;-96.766;2022-08-26T01:06:27;27.40;63.90
44517;DHT22;30223;17.182;-96.766;2022-08-26T01:08:55;27.40;63.90
44517;DHT22;30223;17.182;-96.766;2022-08-26T01:11:23;27.40;63.90
44517;DHT22;30223;17.182;-96.766;2022-08-26T01:13:53;27.30;64.50
44517;DHT22;30223;17.182;-96.766;2022-08-26T01:16:22;27.30;63.90
44517;DHT22;30223;17.182;-96.766;2022-08-26T01:18:53;27.30;63.90
44517;DHT22;30223;17.182;-96.766;2022-08-26T01:21:30;27.30;63.90
44517;DHT22;30223;17.182;-96.766;2022-08-26T01:23:58;27.20;63.80
44517;DHT22;30223;17.182;-96.766;2022-08-26T01:26:33;27.20;63.90
44517;DHT22;30223;17.182;-96.766;2022-08-26T01:29:03;27.20;63.90
44517;DHT22;30223;17.182;-96.766;2022-08-26T01:31:37;27.20;64.00
44517;DHT22;30223;17.182;-96.766;2022-08-26T01:34:24;27.20;64.00
44517;DHT22;30223;17.182;-96.766;2022-08-26T01:36:57;27.20;64.00
44517;DHT22;30223;17.182;-96.766;2022-08-26T01:39:24;27.20;64.00
44517;DHT22;30223;17.182;-96.766;2022-08-26T01:41:54;27.10;64.00
44517;DHT22;30223;17.182;-96.766;2022-08-26T01:44:24;27.10;64.00
44517;DHT22;30223;17.182;-96.766;2022-08-26T01:46:52;27.10;64.10
44517;DHT22;30223;17.182;-96.766;2022-08-26T01:49:20;27.10;64.10
44517;DHT22;30223;17.182;-96.766;2022-08-26T01:51:50;27.10;64.10
44517;DHT22;30223;17.182;-96.766;2022-08-26T01:54:17;27.10;64.10
44517;DHT22;30223;17.182;-96.766;2022-08-26T01:56:45;27.10;64.20
44517;DHT22;30223;17.182;-96.766;2022-08-26T01:59:14;27.00;64.10
44517;DHT22;30223;17.182;-96.766;2022-08-26T02:01:42;27.00;64.20
44517;DHT22;30223;17.182;-96.766;2022-08-26T02:04:25;27.00;64.20
44517;DHT22;30223;17.182;-96.766;2022-08-26T02:06:54;27.00;64.20
44517;DHT22;30223;17.182;-96.766;2022-08-26T02:09:23;27.00;64.20
44517;DHT22;30223;17.182;-96.766;2022-08-26T02:11:50;26.90;64.20
44517;DHT22;30223;17.182;-96.766;2022-08-26T02:14:24;26.90;64.20
44517;DHT22;30223;17.182;-96.766;2022-08-26T02:16:52;26.90;64.30
44517;DHT22;30223;17.182;-96.766;2022-08-26T02:19:22;26.90;64.40
44517;DHT22;30223;17.182;-96.766;2022-08-26T02:21:51;26.80;64.30
44517;DHT22;30223;17.182;-96.766;2022-08-26T02:24:24;26.90;64.30
44517;DHT22;30223;17.182;-96.766;2022-08-26T02:26:51;26.80;64.30
44517;DHT22;30223;17.182;-96.766;2022-08-26T02:29:25;26.80;64.30
44517;DHT22;30223;17.182;-96.766;2022-08-26T02:31:54;26.80;64.30
44517;DHT22;30223;17.182;-96.766;2022-08-26T02:34:28;26.80;64.40
44517;DHT22;30223;17.182;-96.766;2022-08-26T02:36:56;26.80;64.40
44517;DHT22;30223;17.182;-96.766;2022-08-26T02:39:23;26.80;64.40
44517;DHT22;30223;17.182;-96.766;2022-08-26T02:41:50;26.70;64.40
44517;DHT22;30223;17.182;-96.766;2022-08-26T02:44:16;26.70;64.40
44517;DHT22;30223;17.182;-96.766;2022-08-26T02:46:44;26.70;64.40
44517;DHT22;30223;17.182;-96.766;2022-08-26T02:49:10;26.70;64.40
44517;DHT22;30223;17.182;-96.766;2022-08-26T02:51:37;26.70;64.50
44517;DHT22;30223;17.182;-96.766;2022-08-26T02:54:04;26.60;64.40
44517;DHT22;30223;17.182;-96.766;2022-08-26T02:56:32;26.60;64.40
44517;DHT22;30223;17.182;-96.766;2022-08-26T02:58:59;26.60;64.40
44517;DHT22;30223;17.182;-96.766;2022-08-26T03:01:28;26.60;64.40
44517;DHT22;30223;17.182;-96.766;2022-08-26T03:03:55;26.60;64.50
44517;DHT22;30223;17.182;-96.766;2022-08-26T03:06:22;26.60;64.40
44517;DHT22;30223;17.182;-96.766;2022-08-26T03:08:50;26.50;64.40
44517;DHT22;30223;17.182;-96.766;2022-08-26T03:11:17;26.50;64.40
44517;DHT22;30223;17.182;-96.766;2022-08-26T03:13:45;26.50;64.40
44517;DHT22;30223;17.182;-96.766;2022-08-26T03:16:12;26.50;64.40
44517;DHT22;30223;17.182;-96.766;2022-08-26T03:18:40;26.50;64.40
44517;DHT22;30223;17.182;-96.766;2022-08-26T03:21:08;26.50;64.40
44517;DHT22;30223;17.182;-96.766;2022-08-26T03:23:36;26.50;64.30
44517;DHT22;30223;17.182;-96.766;2022-08-26T03:26:04;26.50;64.40
44517;DHT22;30223;17.182;-96.766;2022-08-26T03:28:31;26.40;64.30
44517;DHT22;30223;17.182;-96.766;2022-08-26T03:30:58;26.40;64.30
44517;DHT22;30223;17.182;-96.766;2022-08-26T03:33:25;26.40;64.50
44517;DHT22;30223;17.182;-96.766;2022-08-26T03:35:52;26.40;64.20
44517;DHT22;30223;17.182;-96.766;2022-08-26T03:38:20;26.40;64.20
44517;DHT22;30223;17.182;-96.766;2022-08-26T03:40:47;26.30;64.10
44517;DHT22;30223;17.182;-96.766;2022-08-26T03:43:15;26.40;64.20
44517;DHT22;30223;17.182;-96.766;2022-08-26T03:45:42;26.30;64.10
44517;DHT22;30223;17.182;-96.766;2022-08-26T03:48:09;26.30;64.10
44517;DHT22;30223;17.182;-96.766;2022-08-26T03:50:38;26.30;64.10
44517;DHT22;30223;17.182;-96.766;2022-08-26T03:53:05;26.30;64.20
44517;DHT22;30223;17.182;-96.766;2022-08-26T03:55:32;26.20;64.10
44517;DHT22;30223;17.182;-96.766;2022-08-26T03:57:59;26.20;64.10
44517;DHT22;30223;17.182;-96.766;2022-08-26T04:00:26;26.20;64.10
44517;DHT22;30223;17.182;-96.766;2022-08-26T04:02:53;26.20;64.10
44517;DHT22;30223;17.182;-96.766;2022-08-26T04:05:20;26.20;64.10
44517;DHT22;30223;17.182;-96.766;2022-08-26T04:07:48;26.20;64.10
44517;DHT22;30223;17.182;-96.766;2022-08-26T04:10:17;26.20;64.10
44517;DHT22;30223;17.182;-96.766;2022-08-26T04:12:44;26.20;64.10
44517;DHT22;30223;17.182;-96.766;2022-08-26T04:15:13;26.20;64.10
44517;DHT22;30223;17.182;-96.766;2022-08-26T04:17:40;26.10;64.00
44517;DHT22;30223;17.182;-96.766;2022-08-26T04:20:09;26.10;64.10
44517;DHT22;30223;17.182;-96.766;2022-08-26T04:22:40;26.10;64.10
44517;DHT22;30223;17.182;-96.766;2022-08-26T04:25:08;26.10;64.10
44517;DHT22;30223;17.182;-96.766;2022-08-26T04:27:35;26.10;64.10
44517;DHT22;30223;17.182;-96.766;2022-08-26T04:30:02;26.10;64.10
44517;DHT22;30223;17.182;-96.766;2022-08-26T04:32:29;26.10;64.10
44517;DHT22;30223;17.182;-96.766;2022-08-26T04:34:55;26.00;64.10
44517;DHT22;30223;17.182;-96.766;2022-08-26T04:37:22;26.00;64.00
44517;DHT22;30223;17.182;-96.766;2022-08-26T04:39:52;26.00;64.00
44517;DHT22;30223;17.182;-96.766;2022-08-26T04:42:19;26.00;64.10
44517;DHT22;30223;17.182;-96.766;2022-08-26T04:44:45;26.00;64.10
44517;DHT22;30223;17.182;-96.766;2022-08-26T04:47:12;26.00;64.00
44517;DHT22;30223;17.182;-96.766;2022-08-26T04:49:39;26.00;64.10
44517;DHT22;30223;17.182;-96.766;2022-08-26T04:52:05;26.00;64.10
44517;DHT22;30223;17.182;-96.766;2022-08-26T04:54:32;25.90;64.00
44517;DHT22;30223;17.182;-96.766;2022-08-26T04:56:58;25.90;64.00
44517;DHT22;30223;17.182;-96.766;2022-08-26T04:59:25;25.90;64.60
44517;DHT22;30223;17.182;-96.766;2022-08-26T05:01:53;25.90;64.00
44517;DHT22;30223;17.182;-96.766;2022-08-26T05:04:24;25.90;64.70
44517;DHT22;30223;17.182;-96.766;2022-08-26T05:06:51;25.90;64.10
44517;DHT22;30223;17.182;-96.766;2022-08-26T05:09:18;25.90;64.10
44517;DHT22;30223;17.182;-96.766;2022-08-26T05:11:46;25.80;64.00
44517;DHT22;30223;17.182;-96.766;2022-08-26T05:14:13;25.80;64.00
44517;DHT22;30223;17.182;-96.766;2022-08-26T05:16:40;25.80;64.00
44517;DHT22;30223;17.182;-96.766;2022-08-26T05:19:07;25.80;64.00
44517;DHT22;30223;17.182;-96.766;2022-08-26T05:21:33;25.80;64.00
44517;DHT22;30223;17.182;-96.766;2022-08-26T05:24:00;25.70;64.00
44517;DHT22;30223;17.182;-96.766;2022-08-26T05:26:28;25.80;64.10
44517;DHT22;30223;17.182;-96.766;2022-08-26T05:28:56;25.70;64.00
44517;DHT22;30223;17.182;-96.766;2022-08-26T05:31:26;25.70;64.00
44517;DHT22;30223;17.182;-96.766;2022-08-26T05:33:53;25.70;64.00
44517;DHT22;30223;17.182;-96.766;2022-08-26T05:36:23;25.70;64.00
44517;DHT22;30223;17.182;-96.766;2022-08-26T05:38:50;25.70;64.00
44517;DHT22;30223;17.182;-96.766;2022-08-26T05:41:20;25.70;64.00
44517;DHT22;30223;17.182;-96.766;2022-08-26T05:43:50;25.60;64.00
44517;DHT22;30223;17.182;-96.766;2022-08-26T05:46:17;25.70;64.00
44517;DHT22;30223;17.182;-96.766;2022-08-26T05:48:44;25.60;64.00
44517;DHT22;30223;17.182;-96.766;2022-08-26T05:51:12;25.60;64.00
44517;DHT22;30223;17.182;-96.766;2022-08-26T05:53:40;25.60;64.00
44517;DHT22;30223;17.182;-96.766;2022-08-26T05:56:08;25.60;64.00
44517;DHT22;30223;17.182;-96.766;2022-08-26T05:58:36;25.60;64.00
44517;DHT22;30223;17.182;-96.766;2022-08-26T06:03:31;25.50;64.00
44517;DHT22;30223;17.182;-96.766;2022-08-26T06:06:05;25.50;64.00
44517;DHT22;30223;17.182;-96.766;2022-08-26T06:08:33;25.50;64.00
44517;DHT22;30223;17.182;-96.766;2022-08-26T06:11:01;25.50;64.00
44517;DHT22;30223;17.182;-96.766;2022-08-26T06:13:29;25.50;64.00
44517;DHT22;30223;17.182;-96.766;2022-08-26T06:15:57;25.50;64.00
44517;DHT22;30223;17.182;-96.766;2022-08-26T06:18:26;25.40;64.00
44517;DHT22;30223;17.182;-96.766;2022-08-26T06:20:58;25.40;64.00
44517;DHT22;30223;17.182;-96.766;2022-08-26T06:23:26;25.40;64.00
44517;DHT22;30223;17.182;-96.766;2022-08-26T06:26:14;25.40;64.00
44517;DHT22;30223;17.182;-96.766;2022-08-26T06:28:41;25.40;64.00
44517;DHT22;30223;17.182;-96.766;2022-08-26T06:31:09;25.30;64.50
44517;DHT22;30223;17.182;-96.766;2022-08-26T06:33:35;25.30;63.90
44517;DHT22;30223;17.182;-96.766;2022-08-26T06:36:02;25.30;63.90
44517;DHT22;30223;17.182;-96.766;2022-08-26T06:38:29;25.30;63.90
44517;DHT22;30223;17.182;-96.766;2022-08-26T06:40:55;25.30;63.90
44517;DHT22;30223;17.182;-96.766;2022-08-26T06:43:24;25.30;63.90
44517;DHT22;30223;17.182;-96.766;2022-08-26T06:45:58;25.30;63.90
44517;DHT22;30223;17.182;-96.766;2022-08-26T06:48:25;25.30;63.90
44517;DHT22;30223;17.182;-96.766;2022-08-26T06:51:02;25.30;63.90
44517;DHT22;30223;17.182;-96.766;2022-08-26T06:53:29;25.20;64.40
44517;DHT22;30223;17.182;-96.766;2022-08-26T06:55:55;25.20;63.80
44517;DHT22;30223;17.182;-96.766;2022-08-26T06:58:23;25.20;63.80
44517;DHT22;30223;17.182;-96.766;2022-08-26T07:00:49;25.20;63.80
44517;DHT22;30223;17.182;-96.766;2022-08-26T07:03:16;25.20;63.80
44517;DHT22;30223;17.182;-96.766;2022-08-26T07:05:42;25.10;63.70
44517;DHT22;30223;17.182;-96.766;2022-08-26T07:08:09;25.10;63.70
44517;DHT22;30223;17.182;-96.766;2022-08-26T07:10:36;25.10;63.70
44517;DHT22;30223;17.182;-96.766;2022-08-26T07:13:02;25.10;63.70
44517;DHT22;30223;17.182;-96.766;2022-08-26T07:15:29;25.10;63.70
44517;DHT22;30223;17.182;-96.766;2022-08-26T07:17:55;25.10;63.70
44517;DHT22;30223;17.182;-96.766;2022-08-26T07:20:22;25.10;63.70
44517;DHT22;30223;17.182;-96.766;2022-08-26T07:22:48;25.10;63.70
44517;DHT22;30223;17.182;-96.766;2022-08-26T07:25:15;25.10;63.70
44517;DHT22;30223;17.182;-96.766;2022-08-26T07:27:42;25.10;63.70
44517;DHT22;30223;17.182;-96.766;2022-08-26T07:30:09;25.00;63.60
44517;DHT22;30223;17.182;-96.766;2022-08-26T07:32:36;25.10;63.70
44517;DHT22;30223;17.182;-96.766;2022-08-26T07:35:03;25.00;63.60
44517;DHT22;30223;17.182;-96.766;2022-08-26T07:37:31;25.00;63.60
44517;DHT22;30223;17.182;-96.766;2022-08-26T07:39:57;25.00;63.60
44517;DHT22;30223;17.182;-96.766;2022-08-26T07:42:24;25.00;63.60
44517;DHT22;30223;17.182;-96.766;2022-08-26T07:44:51;25.00;63.60
44517;DHT22;30223;17.182;-96.766;2022-08-26T07:47:17;24.90;63.50
44517;DHT22;30223;17.182;-96.766;2022-08-26T07:49:44;24.90;63.50
44517;DHT22;30223;17.182;-96.766;2022-08-26T07:52:11;25.00;63.60
44517;DHT22;30223;17.182;-96.766;2022-08-26T07:54:38;25.00;63.60
44517;DHT22;30223;17.182;-96.766;2022-08-26T07:57:05;24.90;63.50
44517;DHT22;30223;17.182;-96.766;2022-08-26T07:59:32;24.90;63.50
44517;DHT22;30223;17.182;-96.766;2022-08-26T08:01:59;24.90;63.50
44517;DHT22;30223;17.182;-96.766;2022-08-26T08:04:26;24.80;63.40
44517;DHT22;30223;17.182;-96.766;2022-08-26T08:06:54;24.80;63.40
44517;DHT22;30223;17.182;-96.766;2022-08-26T08:09:21;24.90;63.50
44517;DHT22;30223;17.182;-96.766;2022-08-26T08:11:47;24.80;63.50
44517;DHT22;30223;17.182;-96.766;2022-08-26T08:14:15;24.80;63.40
44517;DHT22;30223;17.182;-96.766;2022-08-26T08:16:43;24.80;63.50
44517;DHT22;30223;17.182;-96.766;2022-08-26T08:19:09;24.80;63.50
44517;DHT22;30223;17.182;-96.766;2022-08-26T08:21:36;24.80;63.50
44517;DHT22;30223;17.182;-96.766;2022-08-26T08:24:03;24.80;63.50
44517;DHT22;30223;17.182;-96.766;2022-08-26T08:26:29;24.80;63.50
44517;DHT22;30223;17.182;-96.766;2022-08-26T08:28:56;24.80;63.50
44517;DHT22;30223;17.182;-96.766;2022-08-26T08:31:31;24.70;63.40
44517;DHT22;30223;17.182;-96.766;2022-08-26T08:33:58;24.70;63.40
44517;DHT22;30223;17.182;-96.766;2022-08-26T08:36:25;24.70;63.40
44517;DHT22;30223;17.182;-96.766;2022-08-26T08:38:52;24.70;63.40
44517;DHT22;30223;17.182;-96.766;2022-08-26T08:44:01;24.70;63.40
44517;DHT22;30223;17.182;-96.766;2022-08-26T08:46:28;24.70;63.40
44517;DHT22;30223;17.182;-96.766;2022-08-26T08:48:57;24.60;63.40
44517;DHT22;30223;17.182;-96.766;2022-08-26T08:51:43;24.60;63.40
44517;DHT22;30223;17.182;-96.766;2022-08-26T08:54:11;24.60;63.40
44517;DHT22;30223;17.182;-96.766;2022-08-26T08:56:44;24.60;63.40
44517;DHT22;30223;17.182;-96.766;2022-08-26T08:59:16;24.60;63.40
44517;DHT22;30223;17.182;-96.766;2022-08-26T09:06:44;24.60;63.40
44517;DHT22;30223;17.182;-96.766;2022-08-26T09:09:21;24.50;63.30
44517;DHT22;30223;17.182;-96.766;2022-08-26T09:11:49;24.50;63.20
44517;DHT22;30223;17.182;-96.766;2022-08-26T09:14:16;24.50;63.20
44517;DHT22;30223;17.182;-96.766;2022-08-26T09:16:56;24.50;63.30
44517;DHT22;30223;17.182;-96.766;2022-08-26T09:19:33;24.50;63.90
44517;DHT22;30223;17.182;-96.766;2022-08-26T09:22:02;24.50;63.20
44517;DHT22;30223;17.182;-96.766;2022-08-26T09:24:30;24.50;63.30
44517;DHT22;30223;17.182;-96.766;2022-08-26T09:26:59;24.40;63.20
44517;DHT22;30223;17.182;-96.766;2022-08-26T09:29:32;24.40;63.20
44517;DHT22;30223;17.182;-96.766;2022-08-26T09:32:22;24.40;63.20
44517;DHT22;30223;17.182;-96.766;2022-08-26T09:35:00;24.40;63.20
44517;DHT22;30223;17.182;-96.766;2022-08-26T09:37:45;24.40;63.20
44517;DHT22;30223;17.182;-96.766;2022-08-26T09:40:26;24.40;63.20
44517;DHT22;30223;17.182;-96.766;2022-08-26T09:43:07;24.30;63.20
44517;DHT22;30223;17.182;-96.766;2022-08-26T09:45:35;24.30;63.10
44517;DHT22;30223;17.182;-96.766;2022-08-26T09:48:02;24.30;63.10
44517;DHT22;30223;17.182;-96.766;2022-08-26T09:53:18;24.30;63.10
44517;DHT22;30223;17.182;-96.766;2022-08-26T09:55:51;24.20;63.10
44517;DHT22;30223;17.182;-96.766;2022-08-26T09:58:40;24.20;63.10
44517;DHT22;30223;17.182;-96.766;2022-08-26T10:01:13;24.20;63.10
44517;DHT22;30223;17.182;-96.766;2022-08-26T10:03:40;24.20;63.10
44517;DHT22;30223;17.182;-96.766;2022-08-26T10:09:04;24.20;63.00
44517;DHT22;30223;17.182;-96.766;2022-08-26T10:11:47;24.20;63.00
44517;DHT22;30223;17.182;-96.766;2022-08-26T10:17:10;24.10;63.00
44517;DHT22;30223;17.182;-96.766;2022-08-26T10:19:44;24.10;63.00
44517;DHT22;30223;17.182;-96.766;2022-08-26T10:25:07;24.10;63.00
44517;DHT22;30223;17.182;-96.766;2022-08-26T10:28:02;24.10;63.00
44517;DHT22;30223;17.182;-96.766;2022-08-26T10:30:44;24.10;63.00
44517;DHT22;30223;17.182;-96.766;2022-08-26T10:33:13;24.00;63.00
44517;DHT22;30223;17.182;-96.766;2022-08-26T10:36:02;24.10;63.00
44517;DHT22;30223;17.182;-96.766;2022-08-26T10:38:37;24.00;62.90
44517;DHT22;30223;17.182;-96.766;2022-08-26T10:41:10;24.00;62.90
44517;DHT22;30223;17.182;-96.766;2022-08-26T10:43:44;24.00;63.00
44517;DHT22;30223;17.182;-96.766;2022-08-26T10:46:18;23.90;62.90
44517;DHT22;30223;17.182;-96.766;2022-08-26T10:48:58;23.90;62.90
44517;DHT22;30223;17.182;-96.766;2022-08-26T10:51:32;24.00;63.00
44517;DHT22;30223;17.182;-96.766;2022-08-26T10:54:20;23.90;62.90
44517;DHT22;30223;17.182;-96.766;2022-08-26T10:57:14;23.90;62.90
44517;DHT22;30223;17.182;-96.766;2022-08-26T11:04:56;23.90;62.90
44517;DHT22;30223;17.182;-96.766;2022-08-26T11:22:49;23.80;62.90
44517;DHT22;30223;17.182;-96.766;2022-08-26T11:25:17;23.80;62.90
44517;DHT22;30223;17.182;-96.766;2022-08-26T11:27:51;23.70;62.80
44517;DHT22;30223;17.182;-96.766;2022-08-26T11:32:57;23.70;62.90
44517;DHT22;30223;17.182;-96.766;2022-08-26T11:40:38;23.70;62.90
44517;DHT22;30223;17.182;-96.766;2022-08-26T11:43:14;23.70;62.90
44517;DHT22;30223;17.182;-96.766;2022-08-26T11:45:46;23.70;62.90
44517;DHT22;30223;17.182;-96.766;2022-08-26T11:50:52;23.60;62.80
44517;DHT22;30223;17.182;-96.766;2022-08-26T11:53:19;23.60;62.80
44517;DHT22;30223;17.182;-96.766;2022-08-26T11:55:46;23.60;62.80
44517;DHT22;30223;17.182;-96.766;2022-08-26T11:58:15;23.60;62.80
44517;DHT22;30223;17.182;-96.766;2022-08-26T12:00:49;23.60;62.90
44517;DHT22;30223;17.182;-96.766;2022-08-26T12:03:21;23.50;62.80
44517;DHT22;30223;17.182;-96.766;2022-08-26T12:05:49;23.50;62.80
44517;DHT22;30223;17.182;-96.766;2022-08-26T12:08:20;23.50;62.80
44517;DHT22;30223;17.182;-96.766;2022-08-26T12:10:49;23.50;62.80
44517;DHT22;30223;17.182;-96.766;2022-08-26T12:13:26;23.50;62.90
44517;DHT22;30223;17.182;-96.766;2022-08-26T12:15:56;23.50;62.90
44517;DHT22;30223;17.182;-96.766;2022-08-26T12:18:29;23.50;62.80
44517;DHT22;30223;17.182;-96.766;2022-08-26T12:21:09;23.50;62.90
44517;DHT22;30223;17.182;-96.766;2022-08-26T12:23:45;23.40;62.80
44517;DHT22;30223;17.182;-96.766;2022-08-26T12:26:29;23.40;62.80
44517;DHT22;30223;17.182;-96.766;2022-08-26T12:28:59;23.40;62.80
44517;DHT22;30223;17.182;-96.766;2022-08-26T12:31:40;23.40;62.80
44517;DHT22;30223;17.182;-96.766;2022-08-26T12:34:10;23.40;62.70
44517;DHT22;30223;17.182;-96.766;2022-08-26T12:36:49;23.40;62.80
44517;DHT22;30223;17.182;-96.766;2022-08-26T12:39:29;23.30;62.70
44517;DHT22;30223;17.182;-96.766;2022-08-26T12:42:00;23.40;62.80
44517;DHT22;30223;17.182;-96.766;2022-08-26T12:53:02;23.30;62.80
44517;DHT22;30223;17.182;-96.766;2022-08-26T12:55:40;23.30;62.80
44517;DHT22;30223;17.182;-96.766;2022-08-26T12:58:29;23.30;62.80
44517;DHT22;30223;17.182;-96.766;2022-08-26T13:03:37;23.30;62.70
44517;DHT22;30223;17.182;-96.766;2022-08-26T13:08:47;23.20;62.70
44517;DHT22;30223;17.182;-96.766;2022-08-26T13:11:20;23.20;62.70
44517;DHT22;30223;17.182;-96.766;2022-08-26T13:13:49;23.20;62.70
44517;DHT22;30223;17.182;-96.766;2022-08-26T13:16:20;23.20;62.80
44517;DHT22;30223;17.182;-96.766;2022-08-26T13:18:52;23.20;62.80
44517;DHT22;30223;17.182;-96.766;2022-08-26T13:21:22;23.20;62.80
44517;DHT22;30223;17.182;-96.766;2022-08-26T13:23:50;23.20;62.80
44517;DHT22;30223;17.182;-96.766;2022-08-26T13:26:18;23.10;62.80
44517;DHT22;30223;17.182;-96.766;2022-08-26T13:28:45;23.10;62.80
44517;DHT22;30223;17.182;-96.766;2022-08-26T13:31:13;23.20;62.80
44517;DHT22;30223;17.182;-96.766;2022-08-26T13:33:41;23.10;62.80
44517;DHT22;30223;17.182;-96.766;2022-08-26T13:36:09;23.10;62.80
44517;DHT22;30223;17.182;-96.766;2022-08-26T13:38:36;23.10;62.90
44517;DHT22;30223;17.182;-96.766;2022-08-26T13:41:03;23.10;62.90
44517;DHT22;30223;17.182;-96.766;2022-08-26T13:43:31;23.10;62.90
44517;DHT22;30223;17.182;-96.766;2022-08-26T13:45:57;23.10;62.90
44517;DHT22;30223;17.182;-96.766;2022-08-26T13:48:25;23.10;62.90
44517;DHT22;30223;17.182;-96.766;2022-08-26T13:50:52;23.10;62.90
44517;DHT22;30223;17.182;-96.766;2022-08-26T13:53:19;23.10;62.90
44517;DHT22;30223;17.182;-96.766;2022-08-26T13:55:45;23.10;62.90
44517;DHT22;30223;17.182;-96.766;2022-08-26T13:58:12;23.10;62.90
44517;DHT22;30223;17.182;-96.766;2022-08-26T14:00:39;23.10;63.00
44517;DHT22;30223;17.182;-96.766;2022-08-26T14:03:06;23.10;63.00
44517;DHT22;30223;17.182;-96.766;2022-08-26T14:05:33;23.10;63.00
44517;DHT22;30223;17.182;-96.766;2022-08-26T14:07:59;23.10;63.00
44517;DHT22;30223;17.182;-96.766;2022-08-26T14:10:26;23.10;63.00
44517;DHT22;30223;17.182;-96.766;2022-08-26T14:12:53;23.10;63.10
44517;DHT22;30223;17.182;-96.766;2022-08-26T14:15:20;23.10;63.00
44517;DHT22;30223;17.182;-96.766;2022-08-26T14:17:47;23.10;63.00
44517;DHT22;30223;17.182;-96.766;2022-08-26T14:20:22;23.10;63.00
44517;DHT22;30223;17.182;-96.766;2022-08-26T14:22:49;23.10;63.00
44517;DHT22;30223;17.182;-96.766;2022-08-26T14:25:16;23.10;62.90
44517;DHT22;30223;17.182;-96.766;2022-08-26T14:27:43;23.10;63.00
44517;DHT22;30223;17.182;-96.766;2022-08-26T14:30:10;23.10;62.90
44517;DHT22;30223;17.182;-96.766;2022-08-26T14:32:39;23.10;62.90
44517;DHT22;30223;17.182;-96.766;2022-08-26T14:35:08;23.20;63.00
44517;DHT22;30223;17.182;-96.766;2022-08-26T14:37:35;23.10;62.90
44517;DHT22;30223;17.182;-96.766;2022-08-26T14:40:03;23.10;62.90
44517;DHT22;30223;17.182;-96.766;2022-08-26T14:42:31;23.20;62.90
44517;DHT22;30223;17.182;-96.766;2022-08-26T14:45:00;23.20;62.90
44517;DHT22;30223;17.182;-96.766;2022-08-26T14:47:28;23.20;62.90
44517;DHT22;30223;17.182;-96.766;2022-08-26T14:49:54;23.20;62.90
44517;DHT22;30223;17.182;-96.766;2022-08-26T14:52:21;23.20;62.90
44517;DHT22;30223;17.182;-96.766;2022-08-26T14:54:47;23.20;63.50
44517;DHT22;30223;17.182;-96.766;2022-08-26T14:57:14;23.20;63.00
44517;DHT22;30223;17.182;-96.766;2022-08-26T14:59:43;23.20;62.90
44517;DHT22;30223;17.182;-96.766;2022-08-26T15:02:12;23.20;62.90
44517;DHT22;30223;17.182;-96.766;2022-08-26T15:04:39;23.30;62.90
44517;DHT22;30223;17.182;-96.766;2022-08-26T15:07:06;23.30;63.00
44517;DHT22;30223;17.182;-96.766;2022-08-26T15:09:36;23.30;63.00
44517;DHT22;30223;17.182;-96.766;2022-08-26T15:12:04;23.30;63.00
44517;DHT22;30223;17.182;-96.766;2022-08-26T15:14:31;23.30;63.00
44517;DHT22;30223;17.182;-96.766;2022-08-26T15:16:58;23.30;63.00
44517;DHT22;30223;17.182;-96.766;2022-08-26T15:19:25;23.30;63.00
44517;DHT22;30223;17.182;-96.766;2022-08-26T15:21:52;23.30;63.00
44517;DHT22;30223;17.182;-96.766;2022-08-26T15:24:21;23.40;63.00
44517;DHT22;30223;17.182;-96.766;2022-08-26T15:26:48;23.40;63.00
44517;DHT22;30223;17.182;-96.766;2022-08-26T15:29:15;23.40;63.00
44517;DHT22;30223;17.182;-96.766;2022-08-26T15:31:42;23.40;63.00
44517;DHT22;30223;17.182;-96.766;2022-08-26T15:34:10;23.50;63.00
44517;DHT22;30223;17.182;-96.766;2022-08-26T15:36:38;23.50;63.00
44517;DHT22;30223;17.182;-96.766;2022-08-26T15:39:06;23.50;62.90
44517;DHT22;30223;17.182;-96.766;2022-08-26T15:41:33;23.50;62.80
44517;DHT22;30223;17.182;-96.766;2022-08-26T15:44:00;23.50;62.80
44517;DHT22;30223;17.182;-96.766;2022-08-26T15:46:27;23.60;62.90
44517;DHT22;30223;17.182;-96.766;2022-08-26T15:48:53;23.60;62.80
44517;DHT22;30223;17.182;-96.766;2022-08-26T15:51:32;23.60;62.80
44517;DHT22;30223;17.182;-96.766;2022-08-26T15:54:02;23.60;62.80
44517;DHT22;30223;17.182;-96.766;2022-08-26T15:56:33;23.70;62.90
44517;DHT22;30223;17.182;-96.766;2022-08-26T15:59:02;23.70;62.90
44517;DHT22;30223;17.182;-96.766;2022-08-26T16:01:29;23.70;62.80
44517;DHT22;30223;17.182;-96.766;2022-08-26T16:03:57;23.70;62.80
44517;DHT22;30223;17.182;-96.766;2022-08-26T16:06:28;23.70;62.80
44517;DHT22;30223;17.182;-96.766;2022-08-26T16:08:55;23.80;62.80
44517;DHT22;30223;17.182;-96.766;2022-08-26T16:11:23;23.80;62.80
44517;DHT22;30223;17.182;-96.766;2022-08-26T16:13:50;23.80;62.80
44517;DHT22;30223;17.182;-96.766;2022-08-26T16:16:17;23.80;62.80
44517;DHT22;30223;17.182;-96.766;2022-08-26T16:18:44;23.80;62.80
44517;DHT22;30223;17.182;-96.766;2022-08-26T16:21:15;23.90;62.80
44517;DHT22;30223;17.182;-96.766;2022-08-26T16:23:42;23.90;62.80